Time;durP1;ratioP1;P1;durP2;ratioP2;P2;SDS_P1;SDS_P2;PMS_P1;PMS_P2;Temp;Humidity;BMP_temperature;BMP_pressure;BME280_temperature;BME280_humidity;BME280_pressure;Samples;Min_cycle;Max_cycle;Signal;HPM_P1;HPM_P2
2023/03/20 00:00:07;;;;;;;57.85;48.58;;;7.40;99.90;;;;;;5247508;28;20044;-70
2023/03/20 00:02:45;;;;;;;60.35;53.72;;;7.40;99.90;;;;;;5237242;28;20021;-70
2023/03/20 00:05:18;;;;;;;60.35;53.83;;;7.00;99.90;;;;;;5250252;28;20028;-69
2023/03/20 00:07:50;;;;;;;60.42;53.47;;;7.20;99.90;;;;;;5250181;28;20077;-69
2023/03/20 00:10:25;;;;;;;57.70;51.42;;;7.60;99.90;;;;;;5250136;28;20051;-66
2023/03/20 00:12:56;;;;;;;62.95;48.75;;;7.50;99.90;;;;;;5249964;28;20032;-69
2023/03/20 00:15:35;;;;;;;54.10;48.65;;;7.50;99.90;;;;;;5250288;28;20046;-69
2023/03/20 00:18:21;;;;;;;56.78;50.13;;;7.50;99.90;;;;;;5231972;28;20064;-69
2023/03/20 00:20:52;;;;;;;57.13;51.65;;;7.60;99.90;;;;;;5249999;28;20056;-68
2023/03/20 00:23:23;;;;;;;59.58;49.35;;;7.60;99.90;;;;;;5250017;28;20102;-69
2023/03/20 00:25:55;;;;;;;67.45;55.97;;;7.50;99.90;;;;;;5231760;28;20033;-69
2023/03/20 00:28:36;;;;;;;60.20;50.70;;;7.10;99.90;;;;;;5249348;28;20025;-69
2023/03/20 00:31:29;;;;;;;55.05;49.10;;;7.00;99.90;;;;;;5249807;28;20032;-69
2023/03/20 00:34:02;;;;;;;56.20;50.38;;;7.60;99.90;;;;;;5231622;28;20021;-69
2023/03/20 00:36:33;;;;;;;54.55;48.72;;;7.40;99.90;;;;;;5249580;28;20060;-66
2023/03/20 00:39:05;;;;;;;59.83;50.20;;;7.50;99.90;;;;;;5249663;28;20117;-69
2023/03/20 00:41:43;;;;;;;53.53;48.05;;;7.60;99.90;;;;;;5249279;28;20040;-69
2023/03/20 00:44:37;;;;;;;56.63;48.22;;;7.60;99.90;;;;;;5249566;28;20119;-69
2023/03/20 00:47:20;;;;;;;84.75;64.47;;;7.50;99.90;;;;;;5249783;28;20020;-69
2023/03/20 00:49:53;;;;;;;74.93;60.88;;;7.60;99.90;;;;;;5249754;28;20078;-69
2023/03/20 00:52:25;;;;;;;80.43;62.20;;;7.40;99.90;;;;;;5249569;28;20130;-69
2023/03/20 00:54:55;;;;;;;96.20;68.95;;;7.20;99.90;;;;;;5249512;28;20460;-69
2023/03/20 00:57:37;;;;;;;94.13;69.45;;;7.20;99.90;;;;;;5231249;28;20029;-69
2023/03/20 01:00:30;;;;;;;88.60;65.97;;;7.60;99.90;;;;;;5249282;28;20036;-69
2023/03/20 01:03:21;;;;;;;90.25;66.25;;;7.70;99.90;;;;;;5249330;28;20495;-69
2023/03/20 01:05:52;;;;;;;62.35;55.60;;;7.30;99.90;;;;;;5249165;28;20020;-69
2023/03/20 01:08:25;;;;;;;65.35;55.70;;;7.50;99.90;;;;;;5249170;28;20021;-69
2023/03/20 01:10:57;;;;;;;62.47;54.67;;;7.30;99.90;;;;;;5231119;28;20072;-69
2023/03/20 01:13:30;;;;;;;75.10;59.67;;;7.60;99.90;;;;;;5249137;28;20543;-69
2023/03/20 01:16:01;;;;;;;71.25;59.22;;;7.40;99.90;;;;;;5249072;28;20123;-69
2023/03/20 01:18:32;;;;;;;65.18;55.00;;;7.20;99.90;;;;;;5248927;28;20036;-69
2023/03/20 01:21:03;;;;;;;64.25;56.17;;;7.40;99.90;;;;;;5248863;28;20542;-69
2023/03/20 01:23:34;;;;;;;63.35;53.45;;;7.30;99.90;;;;;;5248745;28;20024;-69
2023/03/20 01:26:20;;;;;;;59.65;50.05;;;7.50;99.90;;;;;;5248639;28;20033;-69
2023/03/20 01:28:51;;;;;;;65.90;52.33;;;7.30;99.90;;;;;;5248602;28;20021;-66
2023/03/20 01:31:22;;;;;;;59.38;52.67;;;7.30;99.90;;;;;;5248619;28;20059;-69
2023/03/20 01:33:52;;;;;;;62.92;54.13;;;7.60;99.90;;;;;;5248592;28;20056;-69
2023/03/20 01:36:23;;;;;;;66.78;54.38;;;7.20;99.90;;;;;;5248395;28;20039;-69
2023/03/20 01:38:57;;;;;;;84.07;64.35;;;7.20;99.90;;;;;;5247471;28;20402;-69
2023/03/20 01:41:29;;;;;;;85.70;66.82;;;7.30;99.90;;;;;;5248128;28;20119;-69
2023/03/20 01:44:17;;;;;;;49.83;44.53;;;7.50;99.90;;;;;;5248243;28;20112;-69
2023/03/20 01:46:50;;;;;;;52.42;47.47;;;7.30;99.90;;;;;;5248285;28;20023;-69
2023/03/20 01:49:21;;;;;;;53.13;47.72;;;7.50;99.90;;;;;;5248225;28;20028;-69
2023/03/20 01:51:52;;;;;;;54.72;49.03;;;7.60;99.90;;;;;;5248200;28;20017;-69
2023/03/20 01:54:29;;;;;;;53.00;47.75;;;7.40;99.90;;;;;;5230266;28;20029;-69
2023/03/20 01:57:06;;;;;;;49.47;44.83;;;7.50;99.90;;;;;;5248192;28;20048;-69
2023/03/20 01:59:50;;;;;;;52.75;47.42;;;7.10;99.90;;;;;;5247996;28;20044;-69
2023/03/20 02:02:25;;;;;;;51.38;45.80;;;7.60;99.90;;;;;;5247993;28;20384;-69
2023/03/20 02:05:03;;;;;;;58.47;48.92;;;7.60;99.90;;;;;;5247847;28;20096;-69
2023/03/20 02:07:35;;;;;;;52.03;46.72;;;7.50;99.90;;;;;;5248051;28;20027;-67
2023/03/20 02:10:11;;;;;;;56.00;49.88;;;7.60;99.90;;;;;;5248136;28;20028;-69
2023/03/20 02:12:44;;;;;;;57.00;50.90;;;7.70;99.90;;;;;;5229929;28;20039;-69
2023/03/20 02:15:16;;;;;;;59.63;53.17;;;7.60;99.90;;;;;;5223815;28;20040;-70
2023/03/20 02:17:47;;;;;;;50.22;45.03;;;7.20;99.90;;;;;;5234033;28;20103;-70
2023/03/20 02:20:22;;;;;;;53.55;47.72;;;7.50;99.90;;;;;;5247606;28;20103;-69
2023/03/20 02:23:12;;;;;;;86.88;70.18;;;7.40;99.90;;;;;;5227310;28;20029;-69
2023/03/20 02:25:46;;;;;;;61.25;49.42;;;7.60;99.90;;;;;;5231344;28;20078;-70
2023/03/20 02:28:55;;;;;;;49.92;44.75;;;7.40;99.90;;;;;;5240329;28;20039;-69
2023/03/20 02:31:56;;;;;;;55.20;49.38;;;7.00;99.90;;;;;;5247495;28;20027;-69
2023/03/20 02:35:09;;;;;;;53.85;48.50;;;7.00;99.90;;;;;;5231985;28;20029;-69
2023/03/20 02:38:08;;;;;;;48.58;43.92;;;7.30;99.90;;;;;;5247487;28;20025;-69
2023/03/20 02:40:57;;;;;;;51.33;46.47;;;7.10;99.90;;;;;;5247283;28;20037;-69
2023/03/20 02:43:53;;;;;;;54.13;49.05;;;7.40;99.90;;;;;;5229374;28;20051;-69
2023/03/20 02:46:57;;;;;;;50.00;44.78;;;7.50;99.90;;;;;;5231356;28;20033;-67
2023/03/20 02:49:42;;;;;;;47.92;43.50;;;7.10;99.90;;;;;;5226427;28;20036;-69
2023/03/20 02:52:45;;;;;;;52.42;47.60;;;7.40;99.90;;;;;;5226515;28;20024;-69
2023/03/20 02:55:26;;;;;;;45.95;41.65;;;7.40;99.90;;;;;;5226489;28;20033;-69
2023/03/20 02:58:11;;;;;;;50.08;45.65;;;7.20;99.90;;;;;;5226334;28;20033;-70
2023/03/20 03:00:53;;;;;;;50.70;45.67;;;7.20;99.90;;;;;;5226381;28;20032;-69
2023/03/20 03:03:34;;;;;;;51.90;46.72;;;6.60;99.90;;;;;;5226430;28;20029;-69
2023/03/20 03:06:26;;;;;;;53.30;48.35;;;6.70;99.90;;;;;;5226333;28;20503;-70
2023/03/20 03:09:12;;;;;;;53.33;48.50;;;7.10;99.90;;;;;;5226352;28;20048;-70
2023/03/20 03:11:52;;;;;;;52.67;47.80;;;6.50;99.90;;;;;;5226384;28;20025;-70
2023/03/20 03:14:42;;;;;;;50.97;45.65;;;7.00;99.90;;;;;;5226422;28;20346;-67
2023/03/20 03:17:15;;;;;;;48.05;43.70;;;6.80;99.90;;;;;;5226750;28;20025;-70
2023/03/20 03:19:51;;;;;;;48.65;44.05;;;6.40;99.90;;;;;;5226364;28;20392;-69
2023/03/20 03:22:23;;;;;;;47.35;42.97;;;6.80;99.90;;;;;;5226380;28;20025;-69
2023/03/20 03:24:54;;;;;;;52.65;47.65;;;6.60;99.90;;;;;;5226195;28;20029;-70
2023/03/20 03:27:32;;;;;;;50.55;46.03;;;6.80;99.90;;;;;;5226346;28;20025;-69
2023/03/20 03:30:23;;;;;;;47.72;43.63;;;6.70;99.90;;;;;;5208389;28;20032;-67
2023/03/20 03:33:28;;;;;;;51.20;46.88;;;6.70;99.90;;;;;;5231748;28;20032;-70
2023/03/20 03:36:07;;;;;;;48.92;44.08;;;6.70;99.90;;;;;;5193270;28;20051;-66
2023/03/20 03:38:44;;;;;;;51.83;46.30;;;6.40;99.90;;;;;;5246893;28;20079;-69
2023/03/20 03:41:21;;;;;;;52.47;47.72;;;6.70;99.90;;;;;;5244633;28;20040;-73
2023/03/20 03:43:55;;;;;;;47.85;43.45;;;6.90;99.90;;;;;;5246747;28;20040;-69
2023/03/20 03:46:49;;;;;;;74.75;67.55;;;6.70;99.90;;;;;;5241637;28;20116;-68
2023/03/20 03:49:47;;;;;;;45.17;40.30;;;6.60;99.90;;;;;;5225994;28;20065;-68
2023/03/20 03:52:22;;;;;;;44.60;40.55;;;6.60;99.90;;;;;;5225842;28;20036;-68
2023/03/20 03:55:04;;;;;;;50.95;46.38;;;6.70;99.90;;;;;;5225904;28;20080;-68
2023/03/20 03:57:45;;;;;;;46.42;42.30;;;6.80;99.90;;;;;;5225038;28;20032;-68
2023/03/20 04:00:23;;;;;;;45.00;40.40;;;6.70;99.90;;;;;;5224751;28;20120;-69
2023/03/20 04:02:56;;;;;;;45.83;41.10;;;6.80;99.90;;;;;;5226981;28;20033;-68
2023/03/20 04:05:31;;;;;;;48.40;43.85;;;6.80;99.90;;;;;;5211451;28;20480;-68
2023/03/20 04:08:04;;;;;;;47.65;43.38;;;6.70;99.90;;;;;;5229626;28;20020;-68
2023/03/20 04:10:35;;;;;;;46.95;42.78;;;6.80;99.90;;;;;;5229455;28;20108;-68
2023/03/20 04:13:06;;;;;;;45.85;41.08;;;7.00;99.90;;;;;;5229450;28;20178;-68
2023/03/20 04:15:37;;;;;;;48.08;43.40;;;6.80;99.90;;;;;;5229399;28;20496;-69
2023/03/20 04:18:15;;;;;;;47.25;43.13;;;7.10;99.90;;;;;;5229147;28;20126;-68
2023/03/20 04:20:47;;;;;;;47.38;42.97;;;7.20;99.90;;;;;;5229494;28;20361;-69
2023/03/20 04:23:18;;;;;;;46.40;42.30;;;7.00;99.90;;;;;;5229264;28;20024;-68
2023/03/20 04:25:48;;;;;;;45.22;40.80;;;6.80;99.90;;;;;;5211211;28;20033;-68
2023/03/20 04:28:19;;;;;;;46.50;42.35;;;6.80;99.90;;;;;;5229184;28;20032;-68
2023/03/20 04:30:55;;;;;;;47.90;43.60;;;7.00;99.90;;;;;;5229136;28;20361;-68
2023/03/20 04:33:26;;;;;;;52.50;47.70;;;7.00;99.90;;;;;;5211647;28;20040;-68
2023/03/20 04:35:57;;;;;;;48.90;44.80;;;6.90;99.90;;;;;;5229145;28;20489;-69
2023/03/20 04:38:28;;;;;;;44.50;40.53;;;7.00;99.90;;;;;;5229132;28;20087;-68
2023/03/20 04:40:58;;;;;;;48.53;44.13;;;7.00;99.90;;;;;;5228628;28;20070;-69
2023/03/20 04:43:29;;;;;;;46.65;42.15;;;6.80;99.90;;;;;;5228963;28;20036;-70
2023/03/20 04:46:00;;;;;;;67.75;56.38;;;6.70;99.90;;;;;;5228870;28;20457;-71
2023/03/20 04:48:31;;;;;;;48.47;43.90;;;6.80;99.90;;;;;;5228784;28;20040;-68
2023/03/20 04:51:02;;;;;;;48.75;42.90;;;6.70;99.90;;;;;;5228782;28;20029;-69
2023/03/20 04:53:33;;;;;;;53.67;48.55;;;7.00;99.90;;;;;;5210763;28;20051;-68
2023/03/20 04:56:04;;;;;;;54.60;49.55;;;7.10;99.90;;;;;;5228682;28;20036;-68
2023/03/20 04:58:35;;;;;;;62.88;56.55;;;7.10;99.90;;;;;;5210588;28;20033;-68
2023/03/20 05:01:06;;;;;;;65.82;57.47;;;6.90;99.90;;;;;;5228520;28;20501;-68
2023/03/20 05:03:38;;;;;;;57.55;51.38;;;6.80;99.90;;;;;;5210385;28;20029;-69
2023/03/20 05:06:09;;;;;;;56.28;50.05;;;6.80;99.90;;;;;;5228338;28;20025;-68
2023/03/20 05:08:39;;;;;;;57.28;51.30;;;7.00;99.90;;;;;;5228377;28;20064;-68
2023/03/20 05:11:10;;;;;;;56.67;50.70;;;7.30;99.90;;;;;;5228268;28;20162;-68
2023/03/20 05:13:41;;;;;;;52.03;46.58;;;7.10;99.90;;;;;;5226996;28;20025;-69
2023/03/20 05:16:12;;;;;;;51.90;46.90;;;7.00;99.90;;;;;;5228258;28;20017;-69
2023/03/20 05:18:43;;;;;;;53.55;48.50;;;7.10;99.90;;;;;;5228069;28;20048;-69
2023/03/20 05:21:14;;;;;;;45.42;40.78;;;7.50;99.90;;;;;;5228109;28;20036;-69
2023/03/20 05:23:45;;;;;;;49.25;44.38;;;7.60;99.90;;;;;;5228111;28;20016;-68
2023/03/20 05:26:16;;;;;;;53.88;48.50;;;7.90;99.90;;;;;;5228010;28;20033;-68
2023/03/20 05:28:47;;;;;;;48.35;43.42;;;7.90;99.90;;;;;;5209966;28;20017;-68
2023/03/20 05:31:18;;;;;;;48.67;43.78;;;7.90;99.90;;;;;;5227938;28;20024;-69
2023/03/20 05:33:49;;;;;;;52.15;46.67;;;8.00;99.90;;;;;;5233245;28;20555;-69
2023/03/20 05:36:20;;;;;;;52.08;46.63;;;7.90;99.90;;;;;;5248534;28;20411;-68
2023/03/20 05:38:51;;;;;;;51.55;43.92;;;8.10;99.90;;;;;;5230475;28;20028;-68
2023/03/20 05:41:22;;;;;;;45.45;40.83;;;8.10;99.90;;;;;;5248066;28;20048;-65
2023/03/20 05:43:52;;;;;;;47.03;42.00;;;8.60;99.90;;;;;;5248319;28;20035;-68
2023/03/20 05:46:25;;;;;;;45.00;40.47;;;8.40;99.90;;;;;;5248359;28;20020;-68
2023/03/20 05:48:55;;;;;;;47.35;41.40;;;8.90;99.90;;;;;;5248460;28;20107;-67
2023/03/20 05:51:26;;;;;;;45.50;41.08;;;8.70;99.90;;;;;;5247134;28;20096;-68
2023/03/20 05:53:57;;;;;;;44.10;39.92;;;8.30;99.90;;;;;;5248236;28;20055;-65
2023/03/20 05:56:28;;;;;;;44.50;40.33;;;9.00;99.90;;;;;;5248195;28;20028;-65
2023/03/20 05:58:59;;;;;;;46.45;41.85;;;8.90;99.90;;;;;;5247940;28;20035;-68
2023/03/20 06:01:30;;;;;;;50.03;44.85;;;9.20;99.90;;;;;;5246476;28;20476;-68
2023/03/20 06:04:01;;;;;;;49.33;44.53;;;8.70;99.90;;;;;;5247784;28;20024;-66
2023/03/20 06:06:34;;;;;;;49.92;44.90;;;9.30;99.90;;;;;;5248012;28;20024;-66
2023/03/20 06:09:05;;;;;;;57.92;47.70;;;9.60;99.90;;;;;;5247925;28;20060;-68
2023/03/20 06:11:35;;;;;;;50.33;44.47;;;9.70;99.90;;;;;;5239187;28;20468;-68
2023/03/20 06:14:06;;;;;;;52.53;47.28;;;9.60;99.90;;;;;;5232191;28;20017;-68
2023/03/20 06:16:37;;;;;;;47.67;42.60;;;9.70;99.90;;;;;;5227027;28;20426;-67
2023/03/20 06:19:08;;;;;;;49.10;44.03;;;9.80;99.90;;;;;;5227057;28;20477;-66
2023/03/20 06:21:39;;;;;;;49.55;44.30;;;10.00;99.90;;;;;;5227197;28;20029;-66
2023/03/20 06:24:10;;;;;;;52.92;45.88;;;9.90;99.90;;;;;;5226882;28;20025;-67
2023/03/20 06:26:41;;;;;;;52.75;41.30;;;10.00;99.90;;;;;;5226621;28;20432;-69
2023/03/20 06:29:12;;;;;;;49.83;42.95;;;10.00;99.90;;;;;;5226899;28;20029;-69
2023/03/20 06:31:43;;;;;;;46.47;39.80;;;10.30;99.90;;;;;;5227088;28;20032;-68
2023/03/20 06:34:14;;;;;;;44.53;39.42;;;10.80;99.90;;;;;;5226497;28;20799;-68
2023/03/20 06:36:45;;;;;;;43.60;38.97;;;10.30;99.90;;;;;;5208748;28;20067;-69
2023/03/20 06:39:16;;;;;;;38.40;34.45;;;10.60;99.90;;;;;;5226486;28;20044;-69
2023/03/20 06:41:47;;;;;;;37.25;33.85;;;10.40;99.90;;;;;;5237679;28;20049;-69
2023/03/20 06:44:18;;;;;;;37.13;33.40;;;10.70;99.90;;;;;;5243061;28;20029;-69
2023/03/20 06:46:49;;;;;;;36.78;32.42;;;10.30;99.90;;;;;;5247379;28;20029;-69
2023/03/20 06:49:20;;;;;;;34.55;30.88;;;10.00;99.90;;;;;;5247158;28;20039;-69
2023/03/20 06:51:51;;;;;;;35.55;31.92;;;10.80;99.90;;;;;;5247230;28;20465;-69
2023/03/20 06:54:22;;;;;;;34.83;31.27;;;11.30;99.90;;;;;;5247146;28;20154;-69
2023/03/20 06:56:53;;;;;;;34.88;31.65;;;11.20;99.90;;;;;;5246665;28;20033;-67
2023/03/20 06:59:24;;;;;;;34.90;30.92;;;10.90;99.90;;;;;;5246537;28;20036;-69
2023/03/20 07:01:55;;;;;;;35.10;30.80;;;11.30;99.90;;;;;;5246671;28;20036;-69
2023/03/20 07:04:26;;;;;;;37.97;31.05;;;10.80;99.90;;;;;;5244021;28;20050;-68
2023/03/20 07:06:57;;;;;;;36.80;33.38;;;11.00;99.90;;;;;;5227168;28;20021;-67
2023/03/20 07:09:28;;;;;;;37.40;31.35;;;10.70;99.90;;;;;;5225201;28;20039;-67
2023/03/20 07:11:59;;;;;;;35.00;30.98;;;10.80;99.90;;;;;;5228689;28;20096;-67
2023/03/20 07:14:30;;;;;;;38.65;34.58;;;11.30;99.90;;;;;;5225695;28;20063;-68
2023/03/20 07:17:01;;;;;;;35.30;31.58;;;10.90;99.90;;;;;;5225658;28;20017;-68
2023/03/20 07:19:32;;;;;;;37.13;33.38;;;10.80;99.90;;;;;;5226014;28;20112;-65
2023/03/20 07:22:06;;;;;;;37.63;33.83;;;11.00;99.90;;;;;;5226258;28;20030;-68
2023/03/20 07:24:37;;;;;;;36.63;33.08;;;11.30;99.90;;;;;;5226201;28;20017;-67
2023/03/20 07:27:08;;;;;;;36.85;31.45;;;11.10;99.90;;;;;;5208073;28;20464;-68
2023/03/20 07:29:38;;;;;;;39.33;34.03;;;11.60;99.90;;;;;;5225730;28;20032;-68
2023/03/20 07:32:10;;;;;;;39.28;35.47;;;11.40;99.90;;;;;;5226339;28;20078;-67
2023/03/20 07:34:41;;;;;;;38.08;34.17;;;11.40;99.90;;;;;;5244894;28;20033;-68
2023/03/20 07:37:12;;;;;;;38.95;35.47;;;11.30;99.90;;;;;;5235896;28;20009;-68
2023/03/20 07:39:43;;;;;;;45.65;41.28;;;12.00;99.90;;;;;;5229967;28;20041;-68
2023/03/20 07:42:15;;;;;;;41.83;37.95;;;12.30;99.90;;;;;;5229760;28;20430;-71
2023/03/20 07:44:45;;;;;;;42.13;37.80;;;12.60;99.90;;;;;;5229991;28;20116;-68
2023/03/20 07:47:16;;;;;;;42.70;38.15;;;12.00;99.90;;;;;;5229963;28;20111;-68
2023/03/20 07:49:47;;;;;;;43.97;39.75;;;12.10;99.90;;;;;;5229952;28;20029;-69
2023/03/20 07:52:18;;;;;;;44.83;40.25;;;12.40;99.90;;;;;;5229972;28;20025;-67
2023/03/20 07:54:49;;;;;;;44.63;40.42;;;12.30;99.90;;;;;;5229840;28;20032;-68
2023/03/20 07:57:20;;;;;;;38.95;35.35;;;12.50;99.90;;;;;;5234180;28;20029;-68
2023/03/20 07:59:51;;;;;;;43.13;39.00;;;12.20;99.90;;;;;;5236870;28;20033;-70
2023/03/20 08:02:22;;;;;;;44.67;39.92;;;12.60;99.90;;;;;;5233839;28;20025;-67
2023/03/20 08:04:52;;;;;;;43.97;40.10;;;12.10;99.90;;;;;;5239210;28;20380;-68
2023/03/20 08:07:24;;;;;;;43.08;38.70;;;12.50;99.90;;;;;;5238434;28;20710;-68
2023/03/20 08:09:55;;;;;;;45.45;41.28;;;12.30;99.90;;;;;;5238280;28;20040;-70
2023/03/20 08:12:26;;;;;;;44.85;39.80;;;12.60;99.90;;;;;;5238605;28;20036;-69
2023/03/20 08:14:57;;;;;;;39.70;36.00;;;12.90;99.90;;;;;;5237192;28;20044;-70
2023/03/20 08:17:28;;;;;;;41.25;36.15;;;13.30;99.90;;;;;;5238237;28;20020;-70
2023/03/20 08:19:59;;;;;;;42.03;37.85;;;13.00;99.90;;;;;;5235013;28;20480;-69
2023/03/20 08:22:30;;;;;;;38.60;35.00;;;13.70;99.90;;;;;;5243385;28;20154;-69
2023/03/20 08:25:01;;;;;;;37.80;34.17;;;13.50;99.90;;;;;;5240602;28;20032;-68
2023/03/20 08:27:32;;;;;;;36.22;32.75;;;13.60;99.90;;;;;;5232299;28;20036;-68
2023/03/20 08:30:03;;;;;;;38.42;34.97;;;13.30;99.90;;;;;;5249909;28;20025;-68
2023/03/20 08:32:35;;;;;;;36.90;33.85;;;13.70;99.90;;;;;;5249923;28;20028;-69
2023/03/20 08:35:07;;;;;;;38.97;35.15;;;13.80;99.90;;;;;;5249897;28;20029;-68
2023/03/20 08:37:38;;;;;;;38.38;35.15;;;13.60;99.90;;;;;;5249804;28;20056;-68
2023/03/20 08:40:10;;;;;;;36.60;33.70;;;13.90;99.90;;;;;;5249458;28;20134;-69
2023/03/20 08:42:41;;;;;;;36.95;34.13;;;14.00;99.90;;;;;;5249540;28;20401;-68
2023/03/20 08:45:12;;;;;;;40.15;36.45;;;14.10;99.90;;;;;;5249598;28;20073;-67
2023/03/20 08:47:47;;;;;;;35.88;32.88;;;14.30;99.90;;;;;;5249446;28;20035;-66
2023/03/20 08:50:18;;;;;;;36.42;33.33;;;14.20;99.90;;;;;;5249422;28;20025;-67
2023/03/20 08:52:49;;;;;;;33.15;30.08;;;14.00;99.90;;;;;;5249621;28;20103;-67
2023/03/20 08:55:20;;;;;;;34.97;32.05;;;14.30;99.90;;;;;;5249387;28;20158;-68
2023/03/20 08:57:52;;;;;;;34.25;31.17;;;14.30;99.90;;;;;;5249210;28;20025;-69
2023/03/20 09:00:23;;;;;;;31.80;28.83;;;14.60;99.90;;;;;;5230965;28;20082;-69
2023/03/20 09:02:54;;;;;;;32.47;29.70;;;14.70;99.90;;;;;;5228581;28;20018;-69
2023/03/20 09:05:25;;;;;;;24.35;21.95;;;14.90;99.90;;;;;;5228443;28;20029;-67
2023/03/20 09:07:56;;;;;;;28.00;25.60;;;14.10;99.90;;;;;;5228409;28;20024;-65
2023/03/20 09:10:27;;;;;;;29.75;26.67;;;14.30;99.90;;;;;;5228311;28;20029;-66
2023/03/20 09:12:57;;;;;;;31.13;27.80;;;14.90;99.90;;;;;;5228248;28;20029;-67
2023/03/20 09:15:28;;;;;;;33.05;29.65;;;15.00;99.90;;;;;;5228222;28;20036;-67
2023/03/20 09:18:00;;;;;;;29.73;26.60;;;14.80;99.90;;;;;;5228161;28;20036;-67
2023/03/20 09:20:30;;;;;;;26.55;22.05;;;15.60;99.90;;;;;;5228196;28;20044;-64
2023/03/20 09:23:01;;;;;;;23.08;20.58;;;15.80;99.90;;;;;;5229055;28;20016;-65
2023/03/20 09:25:32;;;;;;;22.75;18.92;;;15.90;99.90;;;;;;5238319;28;20404;-68
2023/03/20 09:28:03;;;;;;;23.10;20.55;;;15.10;99.90;;;;;;5248758;28;20099;-65
2023/03/20 09:30:34;;;;;;;24.38;18.05;;;15.50;99.90;;;;;;5248612;28;20142;-66
2023/03/20 09:33:06;;;;;;;24.35;20.13;;;15.80;99.90;;;;;;5230822;28;20016;-66
2023/03/20 09:35:37;;;;;;;23.70;21.25;;;15.70;99.90;;;;;;5248975;28;20056;-68
2023/03/20 09:38:08;;;;;;;23.33;21.20;;;15.60;99.90;;;;;;5248397;28;20024;-68
2023/03/20 09:41:00;;;;;;;25.90;21.45;;;15.90;99.90;;;;;;5248408;28;20078;-68
2023/03/20 09:43:54;;;;;;;45.83;22.02;;;15.40;99.90;;;;;;5248601;28;20028;-64
2023/03/20 09:46:48;;;;;;;24.67;20.45;;;16.20;99.90;;;;;;5248628;28;20159;-66
2023/03/20 09:49:52;;;;;;;24.08;21.48;;;16.10;99.90;;;;;;5248417;28;20025;-68
2023/03/20 09:52:31;;;;;;;25.73;21.70;;;16.10;99.90;;;;;;5248345;28;20040;-68
2023/03/20 09:55:11;;;;;;;25.63;22.50;;;15.70;99.90;;;;;;5248232;28;20487;-67
2023/03/20 09:57:48;;;;;;;24.60;21.63;;;16.00;99.90;;;;;;5248301;28;20021;-68
2023/03/20 10:00:23;;;;;;;25.00;19.65;;;16.00;99.90;;;;;;5247419;28;20385;-65
2023/03/20 10:03:10;;;;;;;21.17;18.65;;;16.70;99.90;;;;;;5248202;28;20036;-63
2023/03/20 10:06:02;;;;;;;25.23;18.58;;;16.30;99.90;;;;;;5248025;28;20040;-66
2023/03/20 10:08:35;;;;;;;21.23;19.02;;;15.90;99.90;;;;;;5247851;28;20029;-68
2023/03/20 10:11:27;;;;;;;26.25;20.48;;;15.90;99.90;;;;;;5247857;28;20021;-67
2023/03/20 10:14:04;;;;;;;26.38;20.02;;;16.00;99.90;;;;;;5247903;28;20067;-64
2023/03/20 10:16:38;;;;;;;23.73;20.67;;;16.60;99.90;;;;;;5247777;28;20028;-64
2023/03/20 10:19:16;;;;;;;25.10;20.75;;;16.60;99.90;;;;;;5247507;28;20484;-65
2023/03/20 10:21:53;;;;;;;23.95;21.65;;;16.90;99.90;;;;;;5247606;28;20078;-65
2023/03/20 10:24:46;;;;;;;22.27;19.98;;;16.10;99.90;;;;;;5247677;28;20025;-68
2023/03/20 10:27:22;;;;;;;24.55;21.17;;;16.10;99.90;;;;;;5247524;28;20016;-65
2023/03/20 10:30:21;;;;;;;29.58;23.10;;;16.50;99.90;;;;;;5247652;28;20108;-63
2023/03/20 10:32:55;;;;;;;29.02;23.60;;;16.90;99.90;;;;;;5247445;28;20025;-63
2023/03/20 10:35:37;;;;;;;28.42;24.33;;;16.70;99.90;;;;;;5247422;28;20027;-63
2023/03/20 10:38:21;;;;;;;26.00;23.38;;;16.90;99.90;;;;;;5247415;28;20496;-63
2023/03/20 10:40:56;;;;;;;26.02;23.70;;;16.90;99.90;;;;;;5247047;28;20040;-68
2023/03/20 10:43:34;;;;;;;26.30;23.83;;;16.90;99.90;;;;;;5247559;28;20017;-68
2023/03/20 10:46:13;;;;;;;30.40;28.05;;;16.50;99.90;;;;;;5245607;28;20083;-68
2023/03/20 10:48:45;;;;;;;32.63;29.63;;;17.30;99.90;;;;;;5235581;28;20036;-64
2023/03/20 10:51:22;;;;;;;27.45;23.98;;;17.60;99.90;;;;;;5208741;28;20028;-63
2023/03/20 10:54:02;;;;;;;32.58;29.45;;;17.30;99.90;;;;;;5226710;28;20077;-63
2023/03/20 10:56:43;;;;;;;31.05;26.70;;;18.00;99.90;;;;;;5226734;28;20024;-66
2023/03/20 10:59:24;;;;;;;23.10;20.45;;;17.70;99.90;;;;;;5226414;28;20382;-65
2023/03/20 11:01:55;;;;;;;36.88;24.15;;;18.00;99.90;;;;;;5226428;28;20043;-67
2023/03/20 11:04:26;;;;;;;29.88;24.33;;;17.30;99.90;;;;;;5226371;28;20108;-66
2023/03/20 11:07:09;;;;;;;31.35;25.38;;;16.70;99.90;;;;;;5226490;28;20033;-65
2023/03/20 11:09:40;;;;;;;25.60;20.65;;;17.50;99.90;;;;;;5226511;28;20086;-64
2023/03/20 11:12:18;;;;;;;30.77;21.55;;;17.50;99.90;;;;;;5229287;28;20045;-64
2023/03/20 11:14:50;;;;;;;26.88;20.70;;;17.80;99.90;;;;;;5230857;28;20369;-66
2023/03/20 11:17:21;;;;;;;28.95;21.10;;;18.00;99.90;;;;;;5230547;28;20028;-63
2023/03/20 11:19:51;;;;;;;33.63;20.98;;;18.20;99.90;;;;;;5230557;28;20357;-64
2023/03/20 11:22:25;;;;;;;31.67;22.17;;;18.00;99.90;;;;;;5230514;28;20025;-64
2023/03/20 11:25:01;;;;;;;30.50;20.48;;;18.20;99.90;;;;;;5230499;28;20379;-66
2023/03/20 11:27:34;;;;;;;31.67;24.23;;;17.80;99.90;;;;;;5230423;28;20079;-65
2023/03/20 11:30:14;;;;;;;33.55;26.15;;;18.10;99.90;;;;;;5230487;28;20111;-65
2023/03/20 11:32:46;;;;;;;;;;;18.10;99.90;;;;;;5230652;28;20036;-64
2023/03/20 11:35:29;;;;;;;25.75;22.25;;;17.90;99.90;;;;;;5229726;28;20248;-63
2023/03/20 11:38:20;;;;;;;24.92;18.00;;;17.80;99.90;;;;;;5230146;28;20020;-64
2023/03/20 11:40:52;;;;;;;25.85;19.83;;;17.60;99.90;;;;;;5229947;28;20037;-66
2023/03/20 11:43:25;;;;;;;25.17;21.60;;;17.40;99.90;;;;;;5230144;28;20041;-66
2023/03/20 11:46:00;;;;;;;33.35;21.15;;;17.40;99.90;;;;;;5230127;28;20032;-65
2023/03/20 11:48:39;;;;;;;50.45;45.67;;;17.50;99.90;;;;;;5230058;28;20079;-66
2023/03/20 11:51:17;;;;;;;26.50;21.73;;;17.60;99.90;;;;;;5230025;28;20056;-67
2023/03/20 11:53:48;;;;;;;26.65;22.05;;;17.30;99.90;;;;;;5230023;28;20111;-66
2023/03/20 11:56:30;;;;;;;24.20;21.58;;;17.80;99.90;;;;;;5230103;28;20105;-64
2023/03/20 11:59:11;;;;;;;32.70;20.13;;;17.50;99.90;;;;;;5229848;28;20112;-63
2023/03/20 12:01:53;;;;;;;30.35;23.27;;;17.80;99.90;;;;;;5229913;28;20025;-66
2023/03/20 12:04:42;;;;;;;26.00;23.17;;;18.00;99.90;;;;;;5229994;28;20025;-66
2023/03/20 12:07:21;;;;;;;28.17;22.48;;;17.90;99.90;;;;;;5230124;28;20103;-64
2023/03/20 12:10:10;;;;;;;32.90;24.95;;;17.60;99.90;;;;;;5229798;28;20354;-64
2023/03/20 12:12:47;;;;;;;31.77;23.67;;;17.70;99.90;;;;;;5229632;28;20028;-64
2023/03/20 12:15:31;;;;;;;31.45;20.38;;;17.90;99.90;;;;;;5229755;28;20542;-67
2023/03/20 12:18:15;;;;;;;32.20;24.10;;;17.70;99.90;;;;;;5229622;28;20500;-67
2023/03/20 12:21:08;;;;;;;27.08;23.30;;;17.80;99.90;;;;;;5229662;28;20068;-64
2023/03/20 12:23:52;;;;;;;33.40;23.35;;;18.10;99.90;;;;;;5228726;28;20517;-65
2023/03/20 12:26:53;;;;;;;31.05;23.20;;;18.00;99.90;;;;;;5229377;28;20060;-66
2023/03/20 12:29:33;;;;;;;32.05;25.08;;;17.90;99.90;;;;;;5233865;28;20435;-65
2023/03/20 12:32:15;;;;;;;33.50;24.10;;;17.90;99.90;;;;;;5234484;28;20025;-65
2023/03/20 12:35:12;;;;;;;29.65;26.52;;;17.60;99.90;;;;;;5229349;28;20682;-64
2023/03/20 12:37:43;;;;;;;29.95;25.45;;;17.70;99.90;;;;;;5232854;28;20438;-67
2023/03/20 12:40:24;;;;;;;31.48;26.67;;;17.50;99.90;;;;;;5239764;28;20116;-67
2023/03/20 12:43:13;;;;;;;29.15;25.05;;;17.60;99.90;;;;;;5228672;28;20051;-65
2023/03/20 12:45:57;;;;;;;29.23;24.93;;;17.80;99.90;;;;;;5228907;28;20048;-65
2023/03/20 12:48:44;;;;;;;28.02;24.58;;;17.70;99.90;;;;;;5228925;28;20509;-65
2023/03/20 12:51:34;;;;;;;28.98;24.52;;;17.60;99.90;;;;;;5211067;28;20025;-67
2023/03/20 12:54:08;;;;;;;33.63;27.77;;;17.60;99.90;;;;;;5228794;28;20021;-67
2023/03/20 12:56:56;;;;;;;28.10;24.65;;;17.70;99.90;;;;;;5228717;28;20107;-65
2023/03/20 12:59:49;;;;;;;37.05;28.52;;;17.30;99.90;;;;;;5228567;28;20041;-65
2023/03/20 13:02:40;;;;;;;34.55;29.63;;;17.40;99.90;;;;;;5228639;28;20366;-65
2023/03/20 13:05:38;;;;;;;33.13;28.00;;;17.10;99.90;;;;;;5228456;28;20111;-65
2023/03/20 13:08:35;;;;;;;31.38;24.40;;;17.00;99.90;;;;;;5228623;28;20021;-65
2023/03/20 13:11:36;;;;;;;39.80;33.13;;;17.00;99.90;;;;;;5228550;28;20075;-65
2023/03/20 13:14:16;;;;;;;;;;;16.70;99.90;;;;;;5157724;28;20041;-68
2023/03/20 13:16:59;;;;;;;35.03;31.50;;;16.20;99.90;;;;;;5228525;28;20249;-65
2023/03/20 13:20:12;;;;;;;36.00;32.13;;;15.80;99.90;;;;;;5228247;28;20094;-66